Nearby METAR Reports

 

KSJC - San Jose, California, USA
Distance from station: NE 14km
Updated: 2019-04-25 04:53
Clear
Clear
 Wind from NW
Wind: NW 9 km/h
Temperature: 14°C
Dew Point: 13°C
Humidity: 94%
Barometer: 1013.5 hPa
Clouds: Clear
Visibility: 16 km
2019/04/25 09:53 KSJC 250953Z AUTO 32005KT 10SM CLR 14/13 A2993 RMK AO2 SLP135 T01440133
KNUQ - Moffett Nas/Mtn, California, USA
Distance from station: N 14km
Updated: 2019-04-25 04:56
Clear
Clear
 Wind from NW
Wind: NW 7 km/h
Temperature: 14°C
Dew Point: 12°C
Humidity: 88%
Barometer: 1013.9 hPa
Clouds: Clear
Visibility: 16 km
2019/04/25 09:56 KNUQ 250956Z 32004KT 10SM CLR 14/12 A2994 RMK AO2 SLP141 T01440117 $
 
KPAO - Palo Alto, California, USA
Distance from station: NNW 23km
Updated: 2019-04-24 22:47
NOT Current
Clear
Clear
 Wind from NW
Wind: NW 13 km/h
Temperature: 17°C
Dew Point: 12°C
Humidity: 73%
Barometer: 1012.9 hPa
Clouds: Clear
Visibility: 16 km
2019/04/25 03:47 KPAO 250347Z 32007KT 10SM SKC 17/12 A2991
KRHV - San Jose/Reid, California, USA
Distance from station: ENE 19km
Updated: 2019-04-24 23:47
NOT Current
Clear
Clear
 Wind from W
Wind: W 6 km/h
Temperature: 21°C
Dew Point: 11°C
Humidity: 53%
Barometer: 1013.5 hPa
Clouds: Clear
Visibility: 16 km
2019/04/25 04:47 KRHV 250447Z 27003KT 10SM SKC 21/11 A2993
 
KOAK - Oakland, California, USA
Distance from station: NNW 50km
Updated: 2019-04-25 04:53
Clear
Clear
 Wind from NW
Wind: NW 13 km/h
Temperature: 13°C
Dew Point: 10°C
Humidity: 82%
Barometer: 1013.9 hPa
Clouds: Clear
Visibility: 14 km
2019/04/25 09:53 KOAK 250953Z 31007KT 9SM CLR 13/10 A2994 RMK AO2 SLP137 T01280100
KSQL - San Carlos Airpo, California, USA
Distance from station: NW 34km
Updated: 2019-04-25 05:15
Clear
Clear
 Wind from calm
Wind: Calm
Temperature: 13°C
Dew Point: 10°C
Humidity: 82%
Barometer: 1013.9 hPa
Clouds: Clear
Visibility: 13 km
2019/04/25 10:15 KSQL 251015Z AUTO 00000KT 8SM CLR 13/10 A2994 RMK AO2
 
KSFO - San Francisco, California, USA
Distance from station: NW 49km
Updated: 2019-04-25 04:56
Few Clouds
Few Clouds
 Wind from WNW
Wind: WNW 15 km/h
Temperature: 12°C
Dew Point: 9°C
Humidity: 82%
Barometer: 1013.5 hPa
Clouds: Few Clouds
Visibility: 16 km
Cloud details: Few Clouds 6096 m
2019/04/25 09:56 KSFO 250956Z 30008KT 10SM FEW200 12/09 A2993 RMK AO2 SLP135 T01170094
KE16 - San Martin, California, USA
Distance from station: ESE 43km
Updated: 2019-04-25 05:10
Clear
Clear
 Wind from calm
Wind: Calm
Temperature: 14°C
Dew Point: 10°C
Humidity: 77%
Barometer: 1014.6 hPa
Clouds: Clear
Visibility: 16 km
2019/04/25 10:10 KE16 251010Z AUTO 00000KT 10SM CLR 14/10 A2996 RMK AO2
 
KWVI - Watsonville, California, USA
Distance from station: SSE 44km
Updated: 2019-04-25 04:53
Clear
Clear
 Wind from calm
Wind: Calm
Temperature: 11°C
Dew Point: 11°C
Humidity: 100%
Barometer: 1014.6 hPa
Clouds: Clear
Visibility: 11 km
2019/04/25 09:53 KWVI 250953Z AUTO 00000KT 7SM CLR 11/11 A2996 RMK AO2 SLP145 T01110106
KHAF - Half Moon Bay, California, USA
Distance from station: WNW 50km
Updated: 2019-04-25 05:15
Mist, Overcast
Mist, Overcast
 Wind from calm
Wind: Calm
Temperature: 10°C
Dew Point: 9°C
Humidity: 94%
Barometer: 1014.6 hPa
Summary: Mist
Clouds: Overcast
Visibility: 8 km
Cloud details: Overcast 244 m
2019/04/25 10:15 KHAF 251015Z AUTO 00000KT 5SM BR OVC008 10/09 A2996 RMK AO2
 
KHWD - Hayward, California, USA
Distance from station: N 44km
Updated: 2019-04-25 04:54
Clear
Clear
 Wind from NW
Wind: NW 7 km/h
Temperature: 12°C
Dew Point: 9°C
Humidity: 82%
Barometer: 1013.5 hPa
Clouds: Clear
Visibility: 13 km
2019/04/25 09:54 KHWD 250954Z AUTO 32004KT 8SM CLR 12/09 A2993 RMK AO2 SLP145 T01220094
KLVK - Livermore, California, USA
Distance from station: NNE 51km
Updated: 2019-04-25 04:53
Clear
Clear
 Wind from calm
Wind: Calm
Temperature: 16°C
Dew Point: 10°C
Humidity: 68%
Barometer: 1012.9 hPa
Clouds: Clear
Visibility: 16 km
2019/04/25 09:53 KLVK 250953Z AUTO 00000KT 10SM CLR 16/10 A2991 RMK AO2 SLP124 T01560100 $